createdAt,value
2022-11-12T00:02:46.597Z,69.40
2022-11-12T00:06:08.182Z,71.20
2022-11-12T00:09:25.543Z,75.10
2022-11-12T00:12:27.829Z,74.00
2022-11-12T00:15:29.807Z,79.00
2022-11-12T00:21:33.089Z,82.30
2022-11-12T00:24:34.862Z,79.40
2022-11-12T00:30:39.224Z,69.30
2022-11-12T00:33:42.165Z,71.50
2022-11-12T00:36:43.744Z,72.80
2022-11-12T00:42:47.175Z,71.70
2022-11-12T00:45:48.945Z,74.10
2022-11-12T00:48:50.899Z,72.00
2022-11-12T00:51:52.672Z,73.50
2022-11-12T00:54:54.338Z,73.30
2022-11-12T01:01:05.854Z,79.70
2022-11-12T01:04:08.321Z,78.40
2022-11-12T01:07:10.125Z,81.10
2022-11-12T01:10:12.139Z,77.60
2022-11-12T01:13:14.498Z,87.60
2022-11-12T01:16:20.059Z,82.60
2022-11-12T01:19:21.674Z,82.20
2022-11-12T01:22:23.758Z,88.30
2022-11-12T01:25:25.549Z,86.60
2022-11-12T01:28:29.379Z,77.20
2022-11-12T01:31:34.397Z,89.30
2022-11-12T01:34:36.117Z,91.10
2022-11-12T01:40:39.423Z,98.50
2022-11-12T01:43:41.946Z,95.30
2022-11-12T01:46:58.138Z,100.30
2022-11-12T01:50:06.139Z,92.30
2022-11-12T01:53:10.163Z,92.90
2022-11-12T01:56:11.979Z,94.70
2022-11-12T01:59:26.816Z,88.40
2022-11-12T02:02:28.754Z,86.50
2022-11-12T02:05:31.686Z,87.60
2022-11-12T02:08:34.345Z,86.60
2022-11-12T02:11:36.107Z,84.50
2022-11-12T02:14:37.795Z,88.90
2022-11-12T02:20:40.985Z,88.60
2022-11-12T02:23:43.101Z,89.60
2022-11-12T02:29:50.382Z,82.80
2022-11-12T02:32:52.041Z,87.20
2022-11-12T02:35:53.861Z,90.90
2022-11-12T02:44:59.559Z,84.30
2022-11-12T02:48:01.776Z,81.20
2022-11-12T02:51:03.538Z,89.30
2022-11-12T02:54:05.316Z,84.70
2022-11-12T02:57:06.934Z,80.80
2022-11-12T03:03:12.901Z,83.00
2022-11-12T03:06:15.064Z,84.30
2022-11-12T03:09:16.628Z,86.20
2022-11-12T03:15:20.096Z,87.00
2022-11-12T03:18:22.053Z,82.30
2022-11-12T03:24:25.219Z,85.00
2022-11-12T03:27:26.793Z,81.80
2022-11-12T03:30:31.180Z,89.90
2022-11-12T03:33:32.905Z,77.40
2022-11-12T03:39:36.784Z,89.30
2022-11-12T03:42:38.389Z,87.40
2022-11-12T03:48:41.770Z,87.60
2022-11-12T03:51:43.695Z,85.90
2022-11-12T03:54:45.417Z,89.70
2022-11-12T04:00:53.560Z,90.90
2022-11-12T04:07:15.774Z,83.20
2022-11-12T04:10:17.426Z,90.00
2022-11-12T04:16:48.823Z,95.90
2022-11-12T04:20:09.280Z,92.90
2022-11-12T04:23:11.035Z,91.60
2022-11-12T04:26:24.889Z,86.00
2022-11-12T04:29:45.444Z,90.60
2022-11-12T04:32:54.759Z,92.90
2022-11-12T04:35:56.523Z,96.90
2022-11-12T04:38:58.258Z,93.50
2022-11-12T04:45:20.227Z,94.20
2022-11-12T04:51:42.738Z,99.60
2022-11-12T04:54:44.340Z,94.70
2022-11-12T04:57:46.099Z,132.20
2022-11-12T05:03:49.664Z,99.30
2022-11-12T05:09:53.046Z,101.30
2022-11-12T05:12:54.656Z,95.90
2022-11-12T05:15:56.308Z,94.10
2022-11-12T05:18:58.108Z,97.50
2022-11-12T05:22:05.699Z,89.60
2022-11-12T05:25:07.987Z,90.70
2022-11-12T05:28:09.641Z,90.70
2022-11-12T05:31:11.750Z,102.70
2022-11-12T05:34:15.568Z,93.30
2022-11-12T05:37:20.769Z,105.10
2022-11-12T05:40:22.382Z,103.80
2022-11-12T05:43:24.268Z,115.00
2022-11-12T05:46:25.870Z,109.50
2022-11-12T05:52:29.582Z,115.40
2022-11-12T05:55:35.932Z,116.20
2022-11-12T05:58:39.285Z,130.30
2022-11-12T06:01:44.072Z,115.90
2022-11-12T06:04:45.742Z,114.30
2022-11-12T06:10:50.452Z,104.40
2022-11-12T06:13:52.170Z,99.80
2022-11-12T06:19:55.335Z,91.80
2022-11-12T06:25:59.302Z,83.70
2022-11-12T06:29:00.854Z,76.40
2022-11-12T06:32:02.450Z,69.80
2022-11-12T06:35:04.867Z,65.20
2022-11-12T06:38:06.500Z,64.80
2022-11-12T06:44:11.094Z,64.50
2022-11-12T06:47:12.782Z,63.50
2022-11-12T06:50:14.862Z,64.00
2022-11-12T06:53:16.482Z,62.50
2022-11-12T06:59:19.969Z,63.00
2022-11-12T07:02:21.727Z,62.80
2022-11-12T07:05:23.420Z,59.90
2022-11-12T07:08:25.639Z,59.60
2022-11-12T07:11:27.843Z,61.10
2022-11-12T07:14:29.464Z,63.90
2022-11-12T07:20:32.972Z,58.10
2022-11-12T07:23:36.212Z,62.80
2022-11-12T07:26:39.877Z,60.30
2022-11-12T07:29:48.806Z,62.90
2022-11-12T07:32:52.135Z,63.60
2022-11-12T07:36:06.029Z,56.70
2022-11-12T07:39:07.692Z,60.00
2022-11-12T07:42:09.470Z,58.20
2022-11-12T07:45:11.051Z,53.70
2022-11-12T07:48:12.673Z,53.50
2022-11-12T07:51:17.508Z,54.70
2022-11-12T07:54:19.262Z,55.60
2022-11-12T07:57:20.984Z,55.60
2022-11-12T08:00:23.715Z,55.80
2022-11-12T08:03:25.979Z,55.70
2022-11-12T08:06:29.008Z,54.60
2022-11-12T08:09:30.785Z,60.90
2022-11-12T08:12:32.330Z,51.40
2022-11-12T08:15:34.008Z,53.70
2022-11-12T08:18:35.689Z,50.10
2022-11-12T08:21:37.403Z,55.80
2022-11-12T08:24:39.274Z,54.70
2022-11-12T08:27:41.166Z,52.00
2022-11-12T08:30:42.846Z,46.30
2022-11-12T08:33:45.274Z,52.20
2022-11-12T08:36:46.949Z,45.80
2022-11-12T08:39:48.821Z,47.50
2022-11-12T08:42:57.938Z,45.40
2022-11-12T08:46:00.637Z,43.40
2022-11-12T08:49:02.315Z,39.60
2022-11-12T08:52:04.146Z,42.30
2022-11-12T08:55:06.623Z,44.60
2022-11-12T08:58:08.556Z,39.60
2022-11-12T09:01:10.372Z,39.80
2022-11-12T09:04:12.101Z,39.10
2022-11-12T09:07:43.416Z,39.90
2022-11-12T09:10:36.818Z,38.40
2022-11-12T09:13:38.735Z,37.50
2022-11-12T09:16:40.674Z,41.30
2022-11-12T09:19:43.157Z,35.70
2022-11-12T09:22:44.944Z,39.60
2022-11-12T09:25:46.699Z,35.80
2022-11-12T09:28:48.344Z,43.50
2022-11-12T09:31:50.362Z,37.00
2022-11-12T09:34:52.101Z,39.50
2022-11-12T09:37:53.801Z,36.70
2022-11-12T09:41:20.630Z,36.50
2022-11-12T09:44:24.542Z,35.00
2022-11-12T09:47:33.787Z,35.80
2022-11-12T09:50:41.042Z,36.20
2022-11-12T09:53:56.186Z,37.20
2022-11-12T09:56:57.867Z,35.10
2022-11-12T09:59:59.612Z,35.90
2022-11-12T10:03:15.044Z,35.60
2022-11-12T10:06:20.550Z,34.20
2022-11-12T10:09:29.259Z,34.60
2022-11-12T10:12:50.193Z,35.80
2022-11-12T10:19:58.622Z,47.70
2022-11-12T10:23:32.684Z,55.80
2022-11-12T10:26:35.180Z,42.90
2022-11-12T10:29:46.891Z,48.70
2022-11-12T10:32:49.462Z,37.20
2022-11-12T10:35:52.801Z,32.70
2022-11-12T10:38:55.395Z,33.00
2022-11-12T10:42:23.941Z,38.50
2022-11-12T10:45:26.315Z,35.30
2022-11-12T10:48:29.390Z,31.50
2022-11-12T10:51:34.225Z,29.40
2022-11-12T10:54:38.997Z,27.90
2022-11-12T10:57:40.656Z,31.40
2022-11-12T11:01:03.005Z,26.40
2022-11-12T11:04:04.763Z,28.80
2022-11-12T11:07:15.322Z,25.60
2022-11-12T11:13:29.236Z,26.60
2022-11-12T11:16:32.143Z,27.10
2022-11-12T11:19:38.695Z,25.50
2022-11-12T11:22:45.931Z,28.00
2022-11-12T11:25:51.410Z,25.30
2022-11-12T11:29:24.522Z,25.70
2022-11-12T11:32:37.435Z,25.90
2022-11-12T11:35:51.770Z,26.40
2022-11-12T11:38:59.524Z,26.90
2022-11-12T11:42:13.371Z,27.90
2022-11-12T11:45:40.534Z,27.50
2022-11-12T11:49:03.622Z,26.00
2022-11-12T11:52:50.712Z,28.50
2022-11-12T11:56:02.765Z,25.50
2022-11-12T11:59:24.612Z,26.60
2022-11-12T12:02:41.460Z,27.30
2022-11-12T12:05:46.405Z,28.00
2022-11-12T12:08:47.970Z,28.50
2022-11-12T12:11:54.780Z,31.00
2022-11-12T12:15:47.916Z,29.90
2022-11-12T12:19:05.166Z,26.00
2022-11-12T12:22:13.444Z,25.80
2022-11-12T12:25:28.056Z,29.10
2022-11-12T12:28:43.579Z,27.60
2022-11-12T12:31:50.970Z,25.70
2022-11-12T12:34:59.584Z,28.00
2022-11-12T12:38:15.679Z,26.10
2022-11-12T12:41:34.081Z,24.50
2022-11-12T12:45:01.244Z,21.60
2022-11-12T12:48:05.292Z,24.40
2022-11-12T12:51:06.977Z,25.70
2022-11-12T12:54:37.116Z,25.00
2022-11-12T12:57:39.656Z,26.00
2022-11-12T13:00:41.799Z,27.10
2022-11-12T13:03:43.852Z,26.40
2022-11-12T13:06:45.647Z,26.80
2022-11-12T13:09:47.483Z,25.90
2022-11-12T13:13:21.231Z,28.40
2022-11-12T13:17:01.856Z,23.20
2022-11-12T13:20:03.643Z,30.00
2022-11-12T13:23:09.839Z,30.50
2022-11-12T13:26:39.782Z,27.30
2022-11-12T13:29:42.909Z,28.20
2022-11-12T13:32:47.280Z,27.80
2022-11-12T13:35:49.180Z,31.60
2022-11-12T13:38:51.107Z,24.80
2022-11-12T13:42:18.137Z,27.20
2022-11-12T13:45:24.089Z,28.90
2022-11-12T13:48:36.959Z,28.80
2022-11-12T13:51:47.267Z,31.50
2022-11-12T13:55:01.664Z,29.50
2022-11-12T13:58:03.444Z,30.60
2022-11-12T14:01:06.422Z,31.20
2022-11-12T14:04:11.534Z,28.90
2022-11-12T14:07:40.019Z,28.00
2022-11-12T14:11:00.173Z,32.40
2022-11-12T14:14:16.360Z,30.40
2022-11-12T14:17:23.036Z,29.90
2022-11-12T14:20:30.778Z,31.20
2022-11-12T14:23:32.769Z,31.90
2022-11-12T14:26:40.054Z,37.00
2022-11-12T14:29:43.864Z,33.10
2022-11-12T14:32:47.386Z,31.70
2022-11-12T14:35:50.597Z,32.00
2022-11-12T14:38:55.292Z,31.60
2022-11-12T14:41:58.477Z,36.60
2022-11-12T14:45:00.406Z,33.00
2022-11-12T14:48:02.280Z,39.20
2022-11-12T14:51:07.452Z,36.70
2022-11-12T14:54:14.643Z,33.80
2022-11-12T14:57:26.835Z,33.20
2022-11-12T15:00:32.260Z,34.30
2022-11-12T15:03:34.044Z,37.10
2022-11-12T15:06:35.680Z,34.10
2022-11-12T15:09:38.960Z,36.30
2022-11-12T15:12:40.762Z,36.30
2022-11-12T15:15:59.680Z,36.10
2022-11-12T15:19:07.624Z,73.70
2022-11-12T15:22:19.579Z,48.50
2022-11-12T15:25:24.389Z,44.70
2022-11-12T15:28:26.653Z,38.90
2022-11-12T15:31:28.480Z,36.80
2022-11-12T15:34:41.117Z,37.50
2022-11-12T15:37:43.460Z,33.20
2022-11-12T15:40:46.609Z,38.50
2022-11-12T15:43:48.313Z,37.40
2022-11-12T15:46:50.092Z,37.00
2022-11-12T15:49:56.949Z,32.70
2022-11-12T15:52:59.312Z,35.10
2022-11-12T15:56:03.437Z,41.00
2022-11-12T15:59:05.163Z,36.80
2022-11-12T16:02:13.594Z,41.50
2022-11-12T16:05:16.582Z,40.50
2022-11-12T16:08:18.840Z,37.50
2022-11-12T16:11:35.964Z,60.60
2022-11-12T16:14:37.831Z,88.80
2022-11-12T16:17:39.765Z,78.40
2022-11-12T16:20:41.569Z,88.40
2022-11-12T16:23:43.393Z,89.40
2022-11-12T16:26:45.141Z,96.10
2022-11-12T16:29:46.955Z,78.60
2022-11-12T16:35:51.110Z,64.60
2022-11-12T16:38:52.935Z,70.60
2022-11-12T16:41:54.598Z,63.70
2022-11-12T16:44:56.409Z,60.30
2022-11-12T16:47:58.388Z,67.70
2022-11-12T16:51:00.914Z,65.40
2022-11-12T16:54:02.649Z,85.60
2022-11-12T16:57:04.365Z,74.80
2022-11-12T17:00:07.646Z,68.70
2022-11-12T17:03:13.100Z,90.70
2022-11-12T17:06:14.804Z,86.50
2022-11-12T17:09:18.090Z,74.20
2022-11-12T17:12:19.871Z,73.40
2022-11-12T17:15:21.729Z,78.80
2022-11-12T17:18:23.452Z,89.80
2022-11-12T17:21:25.304Z,131.30
2022-11-12T17:24:27.292Z,137.10
2022-11-12T17:27:28.937Z,158.40
2022-11-12T17:33:32.491Z,99.80
2022-11-12T17:36:35.324Z,94.90
2022-11-12T17:39:39.791Z,89.90
2022-11-12T17:45:51.475Z,85.50
2022-11-12T17:48:53.374Z,86.00
2022-11-12T17:51:55.155Z,80.80
2022-11-12T17:54:56.802Z,75.00
2022-11-12T18:01:23.406Z,81.60
2022-11-12T18:04:26.605Z,80.00
2022-11-12T18:07:31.850Z,81.30
2022-11-12T18:10:33.674Z,92.00
2022-11-12T18:16:36.996Z,87.10
2022-11-12T18:22:44.722Z,94.20
2022-11-12T18:25:46.862Z,93.50
2022-11-12T18:31:56.901Z,85.30
2022-11-12T18:38:00.219Z,86.60
2022-11-12T18:44:04.827Z,95.30
2022-11-12T18:47:06.500Z,88.60
2022-11-12T18:53:10.887Z,87.30
2022-11-12T18:56:17.601Z,77.00
2022-11-12T18:59:19.504Z,77.70
2022-11-12T19:02:21.420Z,72.50
2022-11-12T19:05:23.113Z,75.70
2022-11-12T19:08:26.584Z,71.20
2022-11-12T19:11:28.323Z,71.90
2022-11-12T19:14:30.339Z,69.60
2022-11-12T19:17:32.001Z,72.50
2022-11-12T19:23:35.315Z,66.40
2022-11-12T19:29:38.659Z,61.20
2022-11-12T19:35:42.158Z,66.20
2022-11-12T19:38:44.159Z,60.90
2022-11-12T19:41:45.929Z,69.20
2022-11-12T19:47:51.944Z,64.30
2022-11-12T19:50:54.194Z,69.90
2022-11-12T19:53:55.759Z,63.00
2022-11-12T19:56:57.392Z,73.40
2022-11-12T19:59:59.127Z,69.60
2022-11-12T20:06:03.958Z,71.10
2022-11-12T20:09:05.930Z,71.90
2022-11-12T20:12:08.532Z,68.40
2022-11-12T20:15:10.530Z,76.50
2022-11-12T20:18:12.182Z,76.60
2022-11-12T20:24:15.485Z,82.80
2022-11-12T20:30:19.610Z,79.50
2022-11-12T20:36:23.660Z,79.80
2022-11-12T20:39:25.376Z,80.30
2022-11-12T20:45:28.585Z,82.10
2022-11-12T20:48:30.492Z,80.40
2022-11-12T20:51:33.742Z,76.80
2022-11-12T20:54:35.463Z,70.60
2022-11-12T21:00:39.060Z,69.50
2022-11-12T21:03:42.146Z,71.20
2022-11-12T21:06:43.935Z,70.70
2022-11-12T21:09:45.630Z,71.50
2022-11-12T21:15:49.143Z,72.90
2022-11-12T21:18:50.785Z,74.10
2022-11-12T21:24:54.089Z,68.80
2022-11-12T21:31:05.185Z,65.60
2022-11-12T21:34:07.200Z,66.60
2022-11-12T21:37:09.163Z,70.20
2022-11-12T21:40:11.048Z,66.20
2022-11-12T21:43:12.775Z,74.30
2022-11-12T21:46:21.101Z,72.70
2022-11-12T21:49:22.833Z,76.90
2022-11-12T21:55:26.368Z,75.10
2022-11-12T21:58:29.525Z,77.80
2022-11-12T22:01:34.278Z,75.40
2022-11-12T22:04:35.998Z,82.20
2022-11-12T22:07:37.751Z,77.30
2022-11-12T22:13:42.000Z,75.70
2022-11-12T22:16:43.891Z,76.60
2022-11-12T22:19:45.716Z,78.40
2022-11-12T22:22:47.339Z,82.00
2022-11-12T22:28:54.011Z,84.60
2022-11-12T22:31:55.778Z,80.00
2022-11-12T22:34:57.652Z,82.80
2022-11-12T22:37:59.244Z,84.00
2022-11-12T22:47:14.657Z,78.50
2022-11-12T22:50:16.423Z,83.10
2022-11-12T22:53:18.090Z,76.90
2022-11-12T22:56:19.977Z,79.40
2022-11-12T22:59:21.709Z,74.70
2022-11-12T23:02:23.356Z,79.30
2022-11-12T23:05:25.049Z,80.40
2022-11-12T23:11:29.304Z,77.50
2022-11-12T23:14:30.965Z,71.10
2022-11-12T23:17:32.632Z,75.40
2022-11-12T23:23:36.259Z,71.30
2022-11-12T23:26:37.862Z,77.00
2022-11-12T23:29:39.564Z,75.90
2022-11-12T23:32:41.737Z,70.00
2022-11-12T23:35:43.448Z,79.30
2022-11-12T23:38:45.589Z,76.20
2022-11-12T23:41:47.328Z,70.30
2022-11-12T23:47:50.908Z,77.00
2022-11-12T23:51:03.866Z,66.20
2022-11-12T23:54:05.800Z,70.50
2022-11-12T23:57:07.628Z,70.70
